Terminal Aerodrome Forecast
Issued by NWS

Home | Current Version | Previous Version | Text Only | Print | Product List | Glossary On
Versions: 1 2 3 4 5 6 7 8 9 10 11 12 13 14 15 16
100
FTUS45 KRIW 240242 AAA
TAFCPR
TAF AMD
KCPR 240242Z 2403/2424 24010KT P6SM SCT100
     FM241600 27014KT P6SM SCT100=

USA.gov is the U.S. government's official web portal to all federal, state and local government web resources and services.